Lake Bluff, Illinois
Current Conditions -  °F | °C
As of 4:55 PM on Friday 28 Nov 2014 (Local Time) from KUGN Reporting Station
Overcast Overcast  
Wind Chill: 23°   Ceiling: 2000
Heat Index: 30°   Visibility: 10mi
Dew Point: 22°   Wind: 7mph
Humidity: 72%   Direction: 160°SSE
Pressure: 29.98"   Gusts: NA
Location:  42.28°N, 87.84°W
Report Text: KUGN 282255Z 16006KT 10SM OVC020 M01/M06 A2998 RMK AO2 SLP169 T10111056
Loading
Personal Weather Stations






























Interactive Weather Map New forecast layout! Learn more

10-Day Weather Forecast

Advertisements
Track Severe Weather on mobile